sensor_id;sensor_type;location;lat;lon;timestamp;P1;durP1;ratioP1;P2;durP2;ratioP2
22677;SDS011;26259;50.214;18.620;2023-03-03T00:00:57;223.07;;;107.33;;
22677;SDS011;26259;50.214;18.620;2023-03-03T00:03:24;249.00;;;115.03;;
22677;SDS011;26259;50.214;18.620;2023-03-03T00:05:51;261.53;;;119.30;;
22677;SDS011;26259;50.214;18.620;2023-03-03T00:08:18;274.60;;;122.63;;
22677;SDS011;26259;50.214;18.620;2023-03-03T00:10:44;254.33;;;120.20;;
22677;SDS011;26259;50.214;18.620;2023-03-03T00:13:23;256.57;;;119.30;;
22677;SDS011;26259;50.214;18.620;2023-03-03T00:15:50;255.73;;;117.07;;
22677;SDS011;26259;50.214;18.620;2023-03-03T00:18:20;258.03;;;120.03;;
22677;SDS011;26259;50.214;18.620;2023-03-03T00:20:54;252.10;;;115.07;;
22677;SDS011;26259;50.214;18.620;2023-03-03T00:25:50;243.43;;;111.50;;
22677;SDS011;26259;50.214;18.620;2023-03-03T00:28:30;245.00;;;116.43;;
22677;SDS011;26259;50.214;18.620;2023-03-03T00:31:11;242.80;;;111.93;;
22677;SDS011;26259;50.214;18.620;2023-03-03T00:33:45;242.13;;;112.57;;
22677;SDS011;26259;50.214;18.620;2023-03-03T00:41:41;246.33;;;110.37;;
22677;SDS011;26259;50.214;18.620;2023-03-03T00:46:57;269.20;;;124.87;;
22677;SDS011;26259;50.214;18.620;2023-03-03T00:49:37;262.50;;;123.63;;
22677;SDS011;26259;50.214;18.620;2023-03-03T00:52:09;262.97;;;119.87;;
22677;SDS011;26259;50.214;18.620;2023-03-03T00:54:41;246.30;;;116.60;;
22677;SDS011;26259;50.214;18.620;2023-03-03T00:57:07;254.63;;;115.13;;
22677;SDS011;26259;50.214;18.620;2023-03-03T00:59:33;257.87;;;115.17;;
22677;SDS011;26259;50.214;18.620;2023-03-03T01:01:58;229.23;;;106.23;;
22677;SDS011;26259;50.214;18.620;2023-03-03T01:04:24;236.83;;;113.47;;
22677;SDS011;26259;50.214;18.620;2023-03-03T01:06:50;255.73;;;118.13;;
22677;SDS011;26259;50.214;18.620;2023-03-03T01:09:16;224.80;;;108.53;;
22677;SDS011;26259;50.214;18.620;2023-03-03T01:11:42;287.47;;;131.60;;
22677;SDS011;26259;50.214;18.620;2023-03-03T01:14:07;244.37;;;113.67;;
22677;SDS011;26259;50.214;18.620;2023-03-03T01:16:33;236.27;;;112.30;;
22677;SDS011;26259;50.214;18.620;2023-03-03T01:18:59;211.43;;;101.87;;
22677;SDS011;26259;50.214;18.620;2023-03-03T01:21:24;227.30;;;102.67;;
22677;SDS011;26259;50.214;18.620;2023-03-03T01:23:50;218.83;;;99.03;;
22677;SDS011;26259;50.214;18.620;2023-03-03T01:26:16;190.27;;;89.80;;
22677;SDS011;26259;50.214;18.620;2023-03-03T01:28:41;211.90;;;95.40;;
22677;SDS011;26259;50.214;18.620;2023-03-03T01:31:07;206.90;;;95.90;;
22677;SDS011;26259;50.214;18.620;2023-03-03T01:33:34;208.70;;;98.00;;
22677;SDS011;26259;50.214;18.620;2023-03-03T01:36:00;206.87;;;95.97;;
22677;SDS011;26259;50.214;18.620;2023-03-03T01:38:27;194.07;;;91.30;;
22677;SDS011;26259;50.214;18.620;2023-03-03T01:40:57;201.70;;;93.90;;
22677;SDS011;26259;50.214;18.620;2023-03-03T01:43:26;199.90;;;95.27;;
22677;SDS011;26259;50.214;18.620;2023-03-03T01:48:22;203.00;;;94.67;;
22677;SDS011;26259;50.214;18.620;2023-03-03T01:51:01;221.23;;;101.47;;
22677;SDS011;26259;50.214;18.620;2023-03-03T01:53:32;219.00;;;105.07;;
22677;SDS011;26259;50.214;18.620;2023-03-03T01:56:03;228.23;;;104.67;;
22677;SDS011;26259;50.214;18.620;2023-03-03T01:58:35;239.53;;;104.70;;
22677;SDS011;26259;50.214;18.620;2023-03-03T02:01:06;232.03;;;108.80;;
22677;SDS011;26259;50.214;18.620;2023-03-03T02:03:43;241.77;;;110.57;;
22677;SDS011;26259;50.214;18.620;2023-03-03T02:06:10;230.03;;;107.67;;
22677;SDS011;26259;50.214;18.620;2023-03-03T02:11:28;228.67;;;104.80;;
22677;SDS011;26259;50.214;18.620;2023-03-03T02:13:56;240.60;;;110.03;;
22677;SDS011;26259;50.214;18.620;2023-03-03T02:16:22;229.63;;;107.10;;
22677;SDS011;26259;50.214;18.620;2023-03-03T02:18:47;251.33;;;118.87;;
22677;SDS011;26259;50.214;18.620;2023-03-03T02:21:17;257.00;;;120.30;;
22677;SDS011;26259;50.214;18.620;2023-03-03T02:26:20;241.13;;;114.13;;
22677;SDS011;26259;50.214;18.620;2023-03-03T02:28:48;231.27;;;109.07;;
22677;SDS011;26259;50.214;18.620;2023-03-03T02:31:16;224.07;;;106.33;;
22677;SDS011;26259;50.214;18.620;2023-03-03T02:33:45;221.87;;;105.57;;
22677;SDS011;26259;50.214;18.620;2023-03-03T02:36:13;232.83;;;110.57;;
22677;SDS011;26259;50.214;18.620;2023-03-03T02:38:48;228.37;;;107.37;;
22677;SDS011;26259;50.214;18.620;2023-03-03T02:41:29;232.63;;;106.03;;
22677;SDS011;26259;50.214;18.620;2023-03-03T02:44:00;237.83;;;111.60;;
22677;SDS011;26259;50.214;18.620;2023-03-03T02:46:30;224.23;;;105.80;;
22677;SDS011;26259;50.214;18.620;2023-03-03T02:48:58;212.23;;;97.93;;
22677;SDS011;26259;50.214;18.620;2023-03-03T02:51:24;223.70;;;101.87;;
22677;SDS011;26259;50.214;18.620;2023-03-03T02:53:50;212.37;;;102.07;;
22677;SDS011;26259;50.214;18.620;2023-03-03T02:56:15;214.10;;;101.23;;
22677;SDS011;26259;50.214;18.620;2023-03-03T02:58:41;233.93;;;105.93;;
22677;SDS011;26259;50.214;18.620;2023-03-03T03:01:06;224.77;;;103.70;;
22677;SDS011;26259;50.214;18.620;2023-03-03T03:03:32;234.40;;;106.63;;
22677;SDS011;26259;50.214;18.620;2023-03-03T03:05:58;225.87;;;102.17;;
22677;SDS011;26259;50.214;18.620;2023-03-03T03:08:23;203.67;;;96.00;;
22677;SDS011;26259;50.214;18.620;2023-03-03T03:10:49;201.93;;;95.93;;
22677;SDS011;26259;50.214;18.620;2023-03-03T03:13:15;212.80;;;98.20;;
22677;SDS011;26259;50.214;18.620;2023-03-03T03:15:41;200.37;;;96.50;;
22677;SDS011;26259;50.214;18.620;2023-03-03T03:18:09;205.77;;;99.57;;
22677;SDS011;26259;50.214;18.620;2023-03-03T03:20:35;204.17;;;95.73;;
22677;SDS011;26259;50.214;18.620;2023-03-03T03:23:01;199.70;;;94.33;;
22677;SDS011;26259;50.214;18.620;2023-03-03T03:25:27;188.30;;;91.67;;
22677;SDS011;26259;50.214;18.620;2023-03-03T03:27:53;200.80;;;96.63;;
22677;SDS011;26259;50.214;18.620;2023-03-03T03:30:18;190.67;;;91.73;;
22677;SDS011;26259;50.214;18.620;2023-03-03T03:32:45;199.43;;;95.57;;
22677;SDS011;26259;50.214;18.620;2023-03-03T03:35:11;200.47;;;94.83;;
22677;SDS011;26259;50.214;18.620;2023-03-03T03:37:37;201.33;;;95.10;;
22677;SDS011;26259;50.214;18.620;2023-03-03T03:40:03;187.87;;;91.70;;
22677;SDS011;26259;50.214;18.620;2023-03-03T03:42:29;193.63;;;90.37;;
22677;SDS011;26259;50.214;18.620;2023-03-03T03:44:56;193.40;;;91.80;;
22677;SDS011;26259;50.214;18.620;2023-03-03T03:47:21;190.30;;;89.87;;
22677;SDS011;26259;50.214;18.620;2023-03-03T03:49:47;198.93;;;95.27;;
22677;SDS011;26259;50.214;18.620;2023-03-03T03:52:12;187.97;;;89.73;;
22677;SDS011;26259;50.214;18.620;2023-03-03T03:54:38;191.57;;;92.20;;
22677;SDS011;26259;50.214;18.620;2023-03-03T03:57:04;204.53;;;95.73;;
22677;SDS011;26259;50.214;18.620;2023-03-03T03:59:29;202.83;;;91.57;;
22677;SDS011;26259;50.214;18.620;2023-03-03T04:01:55;199.10;;;92.70;;
22677;SDS011;26259;50.214;18.620;2023-03-03T04:04:21;198.53;;;92.50;;
22677;SDS011;26259;50.214;18.620;2023-03-03T04:06:47;188.03;;;91.13;;
22677;SDS011;26259;50.214;18.620;2023-03-03T04:09:13;182.10;;;88.00;;
22677;SDS011;26259;50.214;18.620;2023-03-03T04:11:39;237.53;;;110.70;;
22677;SDS011;26259;50.214;18.620;2023-03-03T04:14:05;214.53;;;102.13;;
22677;SDS011;26259;50.214;18.620;2023-03-03T04:16:30;199.33;;;98.43;;
22677;SDS011;26259;50.214;18.620;2023-03-03T04:18:56;234.17;;;105.77;;
22677;SDS011;26259;50.214;18.620;2023-03-03T04:21:22;206.57;;;97.00;;
22677;SDS011;26259;50.214;18.620;2023-03-03T04:23:47;212.93;;;98.43;;
22677;SDS011;26259;50.214;18.620;2023-03-03T04:26:13;200.03;;;96.57;;
22677;SDS011;26259;50.214;18.620;2023-03-03T04:28:38;202.87;;;96.17;;
22677;SDS011;26259;50.214;18.620;2023-03-03T04:31:04;207.90;;;94.53;;
22677;SDS011;26259;50.214;18.620;2023-03-03T04:33:30;200.60;;;95.83;;
22677;SDS011;26259;50.214;18.620;2023-03-03T04:35:55;198.83;;;95.90;;
22677;SDS011;26259;50.214;18.620;2023-03-03T04:38:21;190.83;;;94.37;;
22677;SDS011;26259;50.214;18.620;2023-03-03T04:40:46;201.47;;;95.73;;
22677;SDS011;26259;50.214;18.620;2023-03-03T04:43:12;207.30;;;100.47;;
22677;SDS011;26259;50.214;18.620;2023-03-03T04:45:38;214.07;;;101.77;;
22677;SDS011;26259;50.214;18.620;2023-03-03T04:48:04;218.57;;;100.60;;
22677;SDS011;26259;50.214;18.620;2023-03-03T04:50:30;208.43;;;99.27;;
22677;SDS011;26259;50.214;18.620;2023-03-03T04:52:55;213.77;;;100.10;;
22677;SDS011;26259;50.214;18.620;2023-03-03T04:55:21;200.60;;;94.20;;
22677;SDS011;26259;50.214;18.620;2023-03-03T04:57:47;201.27;;;95.53;;
22677;SDS011;26259;50.214;18.620;2023-03-03T05:00:12;187.20;;;89.70;;
22677;SDS011;26259;50.214;18.620;2023-03-03T05:02:39;175.87;;;85.20;;
22677;SDS011;26259;50.214;18.620;2023-03-03T05:05:05;170.73;;;86.30;;
22677;SDS011;26259;50.214;18.620;2023-03-03T05:07:32;179.10;;;91.57;;
22677;SDS011;26259;50.214;18.620;2023-03-03T05:09:57;183.43;;;92.57;;
22677;SDS011;26259;50.214;18.620;2023-03-03T05:12:23;189.07;;;87.40;;
22677;SDS011;26259;50.214;18.620;2023-03-03T05:14:48;194.40;;;90.47;;
22677;SDS011;26259;50.214;18.620;2023-03-03T05:17:14;184.57;;;89.53;;
22677;SDS011;26259;50.214;18.620;2023-03-03T05:19:40;202.43;;;90.97;;
22677;SDS011;26259;50.214;18.620;2023-03-03T05:22:05;197.87;;;89.63;;
22677;SDS011;26259;50.214;18.620;2023-03-03T05:24:31;193.33;;;89.17;;
22677;SDS011;26259;50.214;18.620;2023-03-03T05:26:56;223.93;;;99.37;;
22677;SDS011;26259;50.214;18.620;2023-03-03T05:29:22;240.80;;;106.83;;
22677;SDS011;26259;50.214;18.620;2023-03-03T05:31:48;228.27;;;100.17;;
22677;SDS011;26259;50.214;18.620;2023-03-03T05:34:13;260.33;;;112.27;;
22677;SDS011;26259;50.214;18.620;2023-03-03T05:36:39;258.53;;;99.33;;
22677;SDS011;26259;50.214;18.620;2023-03-03T05:39:05;261.00;;;99.97;;
22677;SDS011;26259;50.214;18.620;2023-03-03T05:41:30;234.37;;;94.80;;
22677;SDS011;26259;50.214;18.620;2023-03-03T05:43:56;229.07;;;97.03;;
22677;SDS011;26259;50.214;18.620;2023-03-03T05:46:22;275.53;;;99.80;;
22677;SDS011;26259;50.214;18.620;2023-03-03T05:48:47;257.63;;;97.07;;
22677;SDS011;26259;50.214;18.620;2023-03-03T05:51:13;391.37;;;131.40;;
22677;SDS011;26259;50.214;18.620;2023-03-03T05:53:39;276.33;;;92.73;;
22677;SDS011;26259;50.214;18.620;2023-03-03T05:56:04;239.87;;;86.63;;
22677;SDS011;26259;50.214;18.620;2023-03-03T05:58:30;216.97;;;88.50;;
22677;SDS011;26259;50.214;18.620;2023-03-03T06:00:56;256.83;;;88.93;;
22677;SDS011;26259;50.214;18.620;2023-03-03T06:03:21;237.67;;;95.47;;
22677;SDS011;26259;50.214;18.620;2023-03-03T06:05:47;249.47;;;85.23;;
22677;SDS011;26259;50.214;18.620;2023-03-03T06:08:13;290.20;;;83.67;;
22677;SDS011;26259;50.214;18.620;2023-03-03T06:10:38;237.00;;;78.50;;
22677;SDS011;26259;50.214;18.620;2023-03-03T06:13:04;317.03;;;87.03;;
22677;SDS011;26259;50.214;18.620;2023-03-03T06:15:29;230.97;;;81.77;;
22677;SDS011;26259;50.214;18.620;2023-03-03T06:17:55;258.47;;;94.53;;
22677;SDS011;26259;50.214;18.620;2023-03-03T06:20:21;275.27;;;87.63;;
22677;SDS011;26259;50.214;18.620;2023-03-03T06:22:46;338.53;;;96.20;;
22677;SDS011;26259;50.214;18.620;2023-03-03T06:25:12;233.13;;;87.10;;
22677;SDS011;26259;50.214;18.620;2023-03-03T06:27:38;221.67;;;86.03;;
22677;SDS011;26259;50.214;18.620;2023-03-03T06:30:04;216.67;;;83.20;;
22677;SDS011;26259;50.214;18.620;2023-03-03T06:32:30;273.27;;;100.23;;
22677;SDS011;26259;50.214;18.620;2023-03-03T06:34:55;234.43;;;94.00;;
22677;SDS011;26259;50.214;18.620;2023-03-03T06:37:21;212.47;;;82.07;;
22677;SDS011;26259;50.214;18.620;2023-03-03T06:39:47;260.47;;;94.70;;
22677;SDS011;26259;50.214;18.620;2023-03-03T06:42:12;210.43;;;78.40;;
22677;SDS011;26259;50.214;18.620;2023-03-03T06:44:38;248.03;;;90.97;;
22677;SDS011;26259;50.214;18.620;2023-03-03T06:47:03;222.57;;;88.53;;
22677;SDS011;26259;50.214;18.620;2023-03-03T06:49:30;240.27;;;76.80;;
22677;SDS011;26259;50.214;18.620;2023-03-03T06:51:56;229.17;;;84.40;;
22677;SDS011;26259;50.214;18.620;2023-03-03T06:54:28;202.67;;;84.13;;
22677;SDS011;26259;50.214;18.620;2023-03-03T06:56:56;205.63;;;81.00;;
22677;SDS011;26259;50.214;18.620;2023-03-03T06:59:26;188.80;;;77.70;;
22677;SDS011;26259;50.214;18.620;2023-03-03T07:01:52;212.43;;;76.47;;
22677;SDS011;26259;50.214;18.620;2023-03-03T07:06:59;178.60;;;67.37;;
22677;SDS011;26259;50.214;18.620;2023-03-03T07:09:43;175.83;;;62.20;;
22677;SDS011;26259;50.214;18.620;2023-03-03T07:12:10;192.23;;;66.43;;
22677;SDS011;26259;50.214;18.620;2023-03-03T07:14:43;167.90;;;61.97;;
22677;SDS011;26259;50.214;18.620;2023-03-03T07:17:14;176.33;;;63.70;;
22677;SDS011;26259;50.214;18.620;2023-03-03T07:19:43;169.10;;;58.80;;
22677;SDS011;26259;50.214;18.620;2023-03-03T07:24:38;157.60;;;55.57;;
22677;SDS011;26259;50.214;18.620;2023-03-03T07:29:30;153.33;;;52.70;;
22677;SDS011;26259;50.214;18.620;2023-03-03T07:31:58;139.53;;;50.77;;
22677;SDS011;26259;50.214;18.620;2023-03-03T07:34:30;137.27;;;46.43;;
22677;SDS011;26259;50.214;18.620;2023-03-03T07:37:17;138.13;;;44.27;;
22677;SDS011;26259;50.214;18.620;2023-03-03T07:39:59;136.20;;;43.67;;
22677;SDS011;26259;50.214;18.620;2023-03-03T07:42:39;130.73;;;44.97;;
22677;SDS011;26259;50.214;18.620;2023-03-03T07:45:47;133.17;;;46.37;;
22677;SDS011;26259;50.214;18.620;2023-03-03T07:50:42;120.93;;;43.63;;
22677;SDS011;26259;50.214;18.620;2023-03-03T07:53:14;140.93;;;42.80;;
22677;SDS011;26259;50.214;18.620;2023-03-03T07:55:53;125.47;;;44.40;;
22677;SDS011;26259;50.214;18.620;2023-03-03T07:58:21;111.80;;;41.73;;
22677;SDS011;26259;50.214;18.620;2023-03-03T08:01:34;133.97;;;40.30;;
22677;SDS011;26259;50.214;18.620;2023-03-03T08:03:58;110.70;;;39.50;;
22677;SDS011;26259;50.214;18.620;2023-03-03T08:06:41;136.60;;;42.80;;
22677;SDS011;26259;50.214;18.620;2023-03-03T08:11:37;135.43;;;44.80;;
22677;SDS011;26259;50.214;18.620;2023-03-03T08:14:14;144.37;;;41.10;;
22677;SDS011;26259;50.214;18.620;2023-03-03T08:16:49;111.07;;;38.67;;
22677;SDS011;26259;50.214;18.620;2023-03-03T08:19:15;136.70;;;39.03;;
22677;SDS011;26259;50.214;18.620;2023-03-03T08:21:42;145.93;;;41.13;;
22677;SDS011;26259;50.214;18.620;2023-03-03T08:24:07;118.30;;;42.53;;
22677;SDS011;26259;50.214;18.620;2023-03-03T08:26:33;103.47;;;39.93;;
22677;SDS011;26259;50.214;18.620;2023-03-03T08:28:59;114.47;;;39.13;;
22677;SDS011;26259;50.214;18.620;2023-03-03T08:31:25;118.57;;;42.77;;
22677;SDS011;26259;50.214;18.620;2023-03-03T08:33:51;121.33;;;42.37;;
22677;SDS011;26259;50.214;18.620;2023-03-03T08:36:16;117.60;;;40.57;;
22677;SDS011;26259;50.214;18.620;2023-03-03T08:38:42;102.27;;;36.30;;
22677;SDS011;26259;50.214;18.620;2023-03-03T08:41:08;112.37;;;38.27;;
22677;SDS011;26259;50.214;18.620;2023-03-03T08:43:33;124.33;;;42.17;;
22677;SDS011;26259;50.214;18.620;2023-03-03T08:46:00;115.97;;;40.87;;
22677;SDS011;26259;50.214;18.620;2023-03-03T08:48:27;129.23;;;40.23;;
22677;SDS011;26259;50.214;18.620;2023-03-03T08:50:55;117.53;;;41.03;;
22677;SDS011;26259;50.214;18.620;2023-03-03T08:53:21;117.20;;;42.63;;
22677;SDS011;26259;50.214;18.620;2023-03-03T08:55:47;121.40;;;41.80;;
22677;SDS011;26259;50.214;18.620;2023-03-03T08:58:13;126.00;;;42.47;;
22677;SDS011;26259;50.214;18.620;2023-03-03T09:00:40;120.07;;;43.63;;
22677;SDS011;26259;50.214;18.620;2023-03-03T09:03:06;138.27;;;49.60;;
22677;SDS011;26259;50.214;18.620;2023-03-03T09:05:32;124.40;;;45.27;;
22677;SDS011;26259;50.214;18.620;2023-03-03T09:07:58;120.90;;;44.57;;
22677;SDS011;26259;50.214;18.620;2023-03-03T09:10:25;125.33;;;43.20;;
22677;SDS011;26259;50.214;18.620;2023-03-03T09:12:53;139.67;;;51.97;;
22677;SDS011;26259;50.214;18.620;2023-03-03T09:15:26;127.57;;;47.40;;
22677;SDS011;26259;50.214;18.620;2023-03-03T09:17:58;121.67;;;43.13;;
22677;SDS011;26259;50.214;18.620;2023-03-03T09:20:37;112.33;;;44.60;;
22677;SDS011;26259;50.214;18.620;2023-03-03T09:25:58;113.13;;;41.97;;
22677;SDS011;26259;50.214;18.620;2023-03-03T09:28:39;119.13;;;44.60;;
22677;SDS011;26259;50.214;18.620;2023-03-03T09:31:05;114.50;;;44.80;;
22677;SDS011;26259;50.214;18.620;2023-03-03T09:33:49;107.77;;;43.83;;
22677;SDS011;26259;50.214;18.620;2023-03-03T09:36:29;99.37;;;39.10;;
22677;SDS011;26259;50.214;18.620;2023-03-03T09:39:00;134.80;;;50.93;;
22677;SDS011;26259;50.214;18.620;2023-03-03T09:44:21;93.07;;;37.57;;
22677;SDS011;26259;50.214;18.620;2023-03-03T09:49:32;94.67;;;38.27;;
22677;SDS011;26259;50.214;18.620;2023-03-03T10:00:34;84.13;;;32.20;;
22677;SDS011;26259;50.214;18.620;2023-03-03T10:08:57;89.77;;;36.70;;
22677;SDS011;26259;50.214;18.620;2023-03-03T10:11:31;85.33;;;35.30;;
22677;SDS011;26259;50.214;18.620;2023-03-03T10:14:14;86.63;;;32.03;;
22677;SDS011;26259;50.214;18.620;2023-03-03T10:20:06;80.27;;;33.53;;
22677;SDS011;26259;50.214;18.620;2023-03-03T10:22:49;80.33;;;32.83;;
22677;SDS011;26259;50.214;18.620;2023-03-03T10:27:53;70.43;;;31.77;;
22677;SDS011;26259;50.214;18.620;2023-03-03T10:30:27;82.83;;;33.90;;
22677;SDS011;26259;50.214;18.620;2023-03-03T10:33:00;80.33;;;32.47;;
22677;SDS011;26259;50.214;18.620;2023-03-03T10:35:48;77.17;;;31.20;;
22677;SDS011;26259;50.214;18.620;2023-03-03T10:49:35;77.57;;;32.47;;
22677;SDS011;26259;50.214;18.620;2023-03-03T10:52:30;76.63;;;30.37;;
22677;SDS011;26259;50.214;18.620;2023-03-03T11:05:33;72.90;;;32.67;;
22677;SDS011;26259;50.214;18.620;2023-03-03T11:08:10;79.30;;;31.60;;
22677;SDS011;26259;50.214;18.620;2023-03-03T11:10:57;75.33;;;32.33;;
22677;SDS011;26259;50.214;18.620;2023-03-03T11:21:28;77.27;;;33.10;;
22677;SDS011;26259;50.214;18.620;2023-03-03T11:24:12;80.60;;;34.23;;
22677;SDS011;26259;50.214;18.620;2023-03-03T11:29:23;65.33;;;30.47;;
22677;SDS011;26259;50.214;18.620;2023-03-03T11:32:01;68.03;;;30.97;;
22677;SDS011;26259;50.214;18.620;2023-03-03T11:37:34;67.40;;;30.87;;
22677;SDS011;26259;50.214;18.620;2023-03-03T11:40:14;65.73;;;30.90;;
22677;SDS011;26259;50.214;18.620;2023-03-03T11:51:07;59.43;;;28.33;;
22677;SDS011;26259;50.214;18.620;2023-03-03T11:56:40;69.57;;;29.13;;
22677;SDS011;26259;50.214;18.620;2023-03-03T12:04:22;73.70;;;33.10;;
22677;SDS011;26259;50.214;18.620;2023-03-03T12:12:35;78.63;;;33.93;;
22677;SDS011;26259;50.214;18.620;2023-03-03T12:20:25;69.10;;;31.60;;
22677;SDS011;26259;50.214;18.620;2023-03-03T12:25:45;64.77;;;32.27;;
22677;SDS011;26259;50.214;18.620;2023-03-03T12:36:26;60.07;;;29.27;;
22677;SDS011;26259;50.214;18.620;2023-03-03T13:08:32;47.33;;;23.97;;
22677;SDS011;26259;50.214;18.620;2023-03-03T13:13:57;64.27;;;32.67;;
22677;SDS011;26259;50.214;18.620;2023-03-03T13:16:44;60.40;;;29.97;;
22677;SDS011;26259;50.214;18.620;2023-03-03T13:19:20;60.63;;;29.97;;
22677;SDS011;26259;50.214;18.620;2023-03-03T13:27:14;72.43;;;32.97;;
22677;SDS011;26259;50.214;18.620;2023-03-03T13:29:48;67.03;;;31.17;;
22677;SDS011;26259;50.214;18.620;2023-03-03T13:32:34;62.87;;;32.27;;
22677;SDS011;26259;50.214;18.620;2023-03-03T13:35:08;50.37;;;25.23;;
22677;SDS011;26259;50.214;18.620;2023-03-03T13:37:56;42.90;;;22.97;;
22677;SDS011;26259;50.214;18.620;2023-03-03T13:40:24;51.33;;;28.23;;
22677;SDS011;26259;50.214;18.620;2023-03-03T13:43:09;63.27;;;36.17;;
22677;SDS011;26259;50.214;18.620;2023-03-03T13:51:34;38.40;;;20.93;;
22677;SDS011;26259;50.214;18.620;2023-03-03T13:54:31;34.17;;;19.60;;
22677;SDS011;26259;50.214;18.620;2023-03-03T13:57:30;38.27;;;20.13;;
22677;SDS011;26259;50.214;18.620;2023-03-03T14:11:06;39.70;;;21.83;;
22677;SDS011;26259;50.214;18.620;2023-03-03T14:16:37;41.93;;;21.07;;
22677;SDS011;26259;50.214;18.620;2023-03-03T14:19:14;46.53;;;25.73;;
22677;SDS011;26259;50.214;18.620;2023-03-03T14:22:25;51.83;;;27.03;;
22677;SDS011;26259;50.214;18.620;2023-03-03T14:27:34;49.07;;;28.43;;
22677;SDS011;26259;50.214;18.620;2023-03-03T14:33:01;62.33;;;30.10;;
22677;SDS011;26259;50.214;18.620;2023-03-03T14:35:41;59.07;;;29.70;;
22677;SDS011;26259;50.214;18.620;2023-03-03T14:38:46;47.77;;;25.07;;
22677;SDS011;26259;50.214;18.620;2023-03-03T14:46:21;45.90;;;24.00;;
22677;SDS011;26259;50.214;18.620;2023-03-03T14:48:58;47.90;;;24.73;;
22677;SDS011;26259;50.214;18.620;2023-03-03T14:54:18;56.17;;;29.50;;
22677;SDS011;26259;50.214;18.620;2023-03-03T14:57:00;51.73;;;26.37;;
22677;SDS011;26259;50.214;18.620;2023-03-03T15:02:26;45.33;;;24.70;;
22677;SDS011;26259;50.214;18.620;2023-03-03T15:05:09;47.17;;;26.07;;
22677;SDS011;26259;50.214;18.620;2023-03-03T15:07:42;73.50;;;36.20;;
22677;SDS011;26259;50.214;18.620;2023-03-03T15:10:10;57.27;;;29.47;;
22677;SDS011;26259;50.214;18.620;2023-03-03T15:12:38;58.50;;;29.63;;
22677;SDS011;26259;50.214;18.620;2023-03-03T15:17:35;47.23;;;27.23;;
22677;SDS011;26259;50.214;18.620;2023-03-03T15:42:48;54.13;;;29.43;;
22677;SDS011;26259;50.214;18.620;2023-03-03T15:48:30;49.23;;;28.03;;
22677;SDS011;26259;50.214;18.620;2023-03-03T16:01:41;48.13;;;24.27;;
22677;SDS011;26259;50.214;18.620;2023-03-03T16:04:38;42.87;;;25.13;;
22677;SDS011;26259;50.214;18.620;2023-03-03T16:10:23;56.20;;;26.80;;
22677;SDS011;26259;50.214;18.620;2023-03-03T16:13:16;49.37;;;26.13;;
22677;SDS011;26259;50.214;18.620;2023-03-03T16:23:56;46.73;;;25.20;;
22677;SDS011;26259;50.214;18.620;2023-03-03T16:28:57;57.40;;;29.50;;
22677;SDS011;26259;50.214;18.620;2023-03-03T16:39:14;52.03;;;27.73;;
22677;SDS011;26259;50.214;18.620;2023-03-03T16:42:36;53.00;;;28.97;;
22677;SDS011;26259;50.214;18.620;2023-03-03T16:50:18;61.20;;;30.93;;
22677;SDS011;26259;50.214;18.620;2023-03-03T16:53:00;52.43;;;27.60;;
22677;SDS011;26259;50.214;18.620;2023-03-03T16:55:31;55.23;;;28.17;;
22677;SDS011;26259;50.214;18.620;2023-03-03T16:58:25;46.57;;;22.93;;
22677;SDS011;26259;50.214;18.620;2023-03-03T17:03:55;56.73;;;27.57;;
22677;SDS011;26259;50.214;18.620;2023-03-03T17:12:24;67.20;;;30.43;;
22677;SDS011;26259;50.214;18.620;2023-03-03T17:15:35;67.07;;;32.33;;
22677;SDS011;26259;50.214;18.620;2023-03-03T17:24:18;55.50;;;29.13;;
22677;SDS011;26259;50.214;18.620;2023-03-03T17:29:43;49.73;;;25.90;;
22677;SDS011;26259;50.214;18.620;2023-03-03T17:37:37;50.97;;;27.33;;
22677;SDS011;26259;50.214;18.620;2023-03-03T17:45:38;54.67;;;28.10;;
22677;SDS011;26259;50.214;18.620;2023-03-03T17:56:25;65.07;;;33.27;;
22677;SDS011;26259;50.214;18.620;2023-03-03T18:01:52;53.70;;;29.53;;
22677;SDS011;26259;50.214;18.620;2023-03-03T18:07:33;68.77;;;32.90;;
22677;SDS011;26259;50.214;18.620;2023-03-03T18:21:49;75.47;;;40.20;;
22677;SDS011;26259;50.214;18.620;2023-03-03T18:30:17;76.23;;;39.63;;
22677;SDS011;26259;50.214;18.620;2023-03-03T18:35:30;92.87;;;44.17;;
22677;SDS011;26259;50.214;18.620;2023-03-03T18:46:01;102.43;;;47.43;;
22677;SDS011;26259;50.214;18.620;2023-03-03T19:09:53;100.00;;;44.17;;
22677;SDS011;26259;50.214;18.620;2023-03-03T19:15:06;94.40;;;44.57;;
22677;SDS011;26259;50.214;18.620;2023-03-03T19:17:51;100.80;;;44.87;;
22677;SDS011;26259;50.214;18.620;2023-03-03T19:20:22;91.97;;;42.97;;
22677;SDS011;26259;50.214;18.620;2023-03-03T19:22:49;94.80;;;40.50;;
22677;SDS011;26259;50.214;18.620;2023-03-03T19:25:29;82.17;;;38.83;;
22677;SDS011;26259;50.214;18.620;2023-03-03T19:30:41;79.10;;;37.33;;
22677;SDS011;26259;50.214;18.620;2023-03-03T19:38:53;76.17;;;37.43;;
22677;SDS011;26259;50.214;18.620;2023-03-03T19:44:04;78.70;;;37.70;;
22677;SDS011;26259;50.214;18.620;2023-03-03T19:49:26;70.20;;;33.73;;
22677;SDS011;26259;50.214;18.620;2023-03-03T19:52:07;73.33;;;35.03;;
22677;SDS011;26259;50.214;18.620;2023-03-03T19:58:07;66.13;;;33.03;;
22677;SDS011;26259;50.214;18.620;2023-03-03T20:00:43;71.67;;;34.97;;
22677;SDS011;26259;50.214;18.620;2023-03-03T20:09:03;67.37;;;32.00;;
22677;SDS011;26259;50.214;18.620;2023-03-03T20:11:53;74.23;;;42.33;;
22677;SDS011;26259;50.214;18.620;2023-03-03T20:14:43;59.43;;;28.87;;
22677;SDS011;26259;50.214;18.620;2023-03-03T20:25:44;62.13;;;28.93;;
22677;SDS011;26259;50.214;18.620;2023-03-03T20:31:09;59.53;;;30.17;;
22677;SDS011;26259;50.214;18.620;2023-03-03T20:45:41;59.37;;;29.60;;
22677;SDS011;26259;50.214;18.620;2023-03-03T21:00:10;70.03;;;33.43;;
22677;SDS011;26259;50.214;18.620;2023-03-03T21:03:08;81.13;;;40.23;;
22677;SDS011;26259;50.214;18.620;2023-03-03T21:06:06;70.40;;;36.53;;
22677;SDS011;26259;50.214;18.620;2023-03-03T21:11:07;76.97;;;39.07;;
22677;SDS011;26259;50.214;18.620;2023-03-03T21:13:43;89.27;;;40.83;;
22677;SDS011;26259;50.214;18.620;2023-03-03T21:16:11;69.67;;;34.13;;
22677;SDS011;26259;50.214;18.620;2023-03-03T21:18:57;86.97;;;39.53;;
22677;SDS011;26259;50.214;18.620;2023-03-03T21:21:25;61.20;;;33.03;;
22677;SDS011;26259;50.214;18.620;2023-03-03T21:23:53;74.83;;;33.47;;
22677;SDS011;26259;50.214;18.620;2023-03-03T21:31:48;111.63;;;44.47;;
22677;SDS011;26259;50.214;18.620;2023-03-03T21:34:21;83.23;;;37.70;;
22677;SDS011;26259;50.214;18.620;2023-03-03T21:36:52;86.23;;;37.70;;